sensor_id;sensor_type;location;lat;lon;timestamp;P1;durP1;ratioP1;P2;durP2;ratioP2
2009;SDS011;1008;47.404;8.502;2023-02-24T00:01:51;17.07;;;7.00;;
2009;SDS011;1008;47.404;8.502;2023-02-24T00:04:24;16.23;;;7.90;;
2009;SDS011;1008;47.404;8.502;2023-02-24T00:06:52;10.10;;;6.27;;
2009;SDS011;1008;47.404;8.502;2023-02-24T00:09:21;11.00;;;7.00;;
2009;SDS011;1008;47.404;8.502;2023-02-24T00:11:52;15.77;;;8.10;;
2009;SDS011;1008;47.404;8.502;2023-02-24T00:14:20;14.93;;;7.83;;
2009;SDS011;1008;47.404;8.502;2023-02-24T00:16:48;13.83;;;7.27;;
2009;SDS011;1008;47.404;8.502;2023-02-24T00:19:18;14.37;;;6.80;;
2009;SDS011;1008;47.404;8.502;2023-02-24T00:21:46;13.17;;;7.53;;
2009;SDS011;1008;47.404;8.502;2023-02-24T00:24:13;11.23;;;6.83;;
2009;SDS011;1008;47.404;8.502;2023-02-24T00:26:41;10.27;;;6.13;;
2009;SDS011;1008;47.404;8.502;2023-02-24T00:29:10;14.67;;;7.33;;
2009;SDS011;1008;47.404;8.502;2023-02-24T00:31:38;12.10;;;6.07;;
2009;SDS011;1008;47.404;8.502;2023-02-24T00:34:07;13.20;;;6.90;;
2009;SDS011;1008;47.404;8.502;2023-02-24T00:36:36;13.60;;;6.83;;
2009;SDS011;1008;47.404;8.502;2023-02-24T00:39:04;13.47;;;6.63;;
2009;SDS011;1008;47.404;8.502;2023-02-24T00:41:34;12.57;;;7.00;;
2009;SDS011;1008;47.404;8.502;2023-02-24T00:44:04;13.37;;;7.30;;
2009;SDS011;1008;47.404;8.502;2023-02-24T00:46:34;13.93;;;6.97;;
2009;SDS011;1008;47.404;8.502;2023-02-24T00:49:03;14.40;;;7.03;;
2009;SDS011;1008;47.404;8.502;2023-02-24T00:51:31;8.90;;;6.03;;
2009;SDS011;1008;47.404;8.502;2023-02-24T00:54:02;18.10;;;6.73;;
2009;SDS011;1008;47.404;8.502;2023-02-24T00:56:29;11.57;;;6.57;;
2009;SDS011;1008;47.404;8.502;2023-02-24T00:58:58;14.70;;;7.40;;
2009;SDS011;1008;47.404;8.502;2023-02-24T01:01:27;15.70;;;7.17;;
2009;SDS011;1008;47.404;8.502;2023-02-24T01:03:56;12.87;;;7.13;;
2009;SDS011;1008;47.404;8.502;2023-02-24T01:06:26;13.27;;;6.67;;
2009;SDS011;1008;47.404;8.502;2023-02-24T01:08:54;12.83;;;7.73;;
2009;SDS011;1008;47.404;8.502;2023-02-24T01:11:24;18.13;;;7.53;;
2009;SDS011;1008;47.404;8.502;2023-02-24T01:14:11;13.83;;;6.83;;
2009;SDS011;1008;47.404;8.502;2023-02-24T01:16:41;9.43;;;6.20;;
2009;SDS011;1008;47.404;8.502;2023-02-24T01:19:14;16.17;;;7.50;;
2009;SDS011;1008;47.404;8.502;2023-02-24T01:21:42;11.90;;;6.77;;
2009;SDS011;1008;47.404;8.502;2023-02-24T01:24:10;13.33;;;6.97;;
2009;SDS011;1008;47.404;8.502;2023-02-24T01:26:37;16.20;;;8.00;;
2009;SDS011;1008;47.404;8.502;2023-02-24T01:29:04;13.40;;;7.17;;
2009;SDS011;1008;47.404;8.502;2023-02-24T01:31:33;12.27;;;7.20;;
2009;SDS011;1008;47.404;8.502;2023-02-24T01:34:01;13.47;;;7.50;;
2009;SDS011;1008;47.404;8.502;2023-02-24T01:36:30;15.93;;;8.10;;
2009;SDS011;1008;47.404;8.502;2023-02-24T01:38:58;12.73;;;7.43;;
2009;SDS011;1008;47.404;8.502;2023-02-24T01:41:25;13.07;;;7.00;;
2009;SDS011;1008;47.404;8.502;2023-02-24T01:43:57;10.67;;;5.97;;
2009;SDS011;1008;47.404;8.502;2023-02-24T01:46:26;16.07;;;7.47;;
2009;SDS011;1008;47.404;8.502;2023-02-24T01:48:54;19.60;;;6.60;;
2009;SDS011;1008;47.404;8.502;2023-02-24T01:51:25;9.97;;;6.27;;
2009;SDS011;1008;47.404;8.502;2023-02-24T01:53:59;13.73;;;7.90;;
2009;SDS011;1008;47.404;8.502;2023-02-24T01:56:26;8.93;;;5.60;;
2009;SDS011;1008;47.404;8.502;2023-02-24T01:58:56;19.10;;;7.50;;
2009;SDS011;1008;47.404;8.502;2023-02-24T02:01:24;13.03;;;7.00;;
2009;SDS011;1008;47.404;8.502;2023-02-24T02:03:53;21.13;;;6.97;;
2009;SDS011;1008;47.404;8.502;2023-02-24T02:06:30;13.70;;;7.30;;
2009;SDS011;1008;47.404;8.502;2023-02-24T02:08:57;11.67;;;6.40;;
2009;SDS011;1008;47.404;8.502;2023-02-24T02:11:25;15.63;;;7.07;;
2009;SDS011;1008;47.404;8.502;2023-02-24T02:13:52;14.33;;;7.30;;
2009;SDS011;1008;47.404;8.502;2023-02-24T02:19:32;13.00;;;6.90;;
2009;SDS011;1008;47.404;8.502;2023-02-24T02:22:27;12.53;;;7.20;;
2009;SDS011;1008;47.404;8.502;2023-02-24T02:25:13;12.80;;;6.67;;
2009;SDS011;1008;47.404;8.502;2023-02-24T02:27:47;22.73;;;7.00;;
2009;SDS011;1008;47.404;8.502;2023-02-24T02:30:46;20.93;;;7.57;;
2009;SDS011;1008;47.404;8.502;2023-02-24T02:33:56;15.17;;;7.93;;
2009;SDS011;1008;47.404;8.502;2023-02-24T02:36:39;14.20;;;7.20;;
2009;SDS011;1008;47.404;8.502;2023-02-24T02:39:21;14.10;;;6.50;;
2009;SDS011;1008;47.404;8.502;2023-02-24T02:41:58;16.70;;;7.07;;
2009;SDS011;1008;47.404;8.502;2023-02-24T02:44:39;16.70;;;7.80;;
2009;SDS011;1008;47.404;8.502;2023-02-24T02:47:12;14.07;;;7.60;;
2009;SDS011;1008;47.404;8.502;2023-02-24T02:49:50;11.37;;;6.63;;
2009;SDS011;1008;47.404;8.502;2023-02-24T02:52:20;16.10;;;7.27;;
2009;SDS011;1008;47.404;8.502;2023-02-24T02:54:53;14.73;;;6.57;;
2009;SDS011;1008;47.404;8.502;2023-02-24T02:57:24;19.10;;;8.30;;
2009;SDS011;1008;47.404;8.502;2023-02-24T02:59:53;20.33;;;7.90;;
2009;SDS011;1008;47.404;8.502;2023-02-24T03:02:25;12.43;;;7.03;;
2009;SDS011;1008;47.404;8.502;2023-02-24T03:05:03;13.33;;;7.40;;
2009;SDS011;1008;47.404;8.502;2023-02-24T03:07:35;7.73;;;6.20;;
2009;SDS011;1008;47.404;8.502;2023-02-24T03:10:07;15.07;;;7.90;;
2009;SDS011;1008;47.404;8.502;2023-02-24T03:12:42;20.10;;;7.87;;
2009;SDS011;1008;47.404;8.502;2023-02-24T03:15:12;10.23;;;6.53;;
2009;SDS011;1008;47.404;8.502;2023-02-24T03:17:45;21.50;;;8.10;;
2009;SDS011;1008;47.404;8.502;2023-02-24T03:20:17;21.03;;;8.50;;
2009;SDS011;1008;47.404;8.502;2023-02-24T03:22:48;16.40;;;8.37;;
2009;SDS011;1008;47.404;8.502;2023-02-24T03:25:20;12.50;;;7.33;;
2009;SDS011;1008;47.404;8.502;2023-02-24T03:27:53;13.23;;;8.03;;
2009;SDS011;1008;47.404;8.502;2023-02-24T03:30:26;17.40;;;8.00;;
2009;SDS011;1008;47.404;8.502;2023-02-24T03:32:59;26.43;;;9.83;;
2009;SDS011;1008;47.404;8.502;2023-02-24T03:35:32;12.67;;;6.47;;
2009;SDS011;1008;47.404;8.502;2023-02-24T03:38:03;15.63;;;8.20;;
2009;SDS011;1008;47.404;8.502;2023-02-24T03:40:31;17.40;;;7.63;;
2009;SDS011;1008;47.404;8.502;2023-02-24T03:43:00;17.60;;;8.27;;
2009;SDS011;1008;47.404;8.502;2023-02-24T03:45:32;15.23;;;7.23;;
2009;SDS011;1008;47.404;8.502;2023-02-24T03:48:01;17.03;;;7.90;;
2009;SDS011;1008;47.404;8.502;2023-02-24T03:50:29;12.63;;;7.30;;
2009;SDS011;1008;47.404;8.502;2023-02-24T03:52:59;15.67;;;7.90;;
2009;SDS011;1008;47.404;8.502;2023-02-24T03:55:36;11.40;;;7.40;;
2009;SDS011;1008;47.404;8.502;2023-02-24T03:58:13;23.97;;;7.60;;
2009;SDS011;1008;47.404;8.502;2023-02-24T04:00:49;12.80;;;7.07;;
2009;SDS011;1008;47.404;8.502;2023-02-24T04:03:22;14.77;;;7.30;;
2009;SDS011;1008;47.404;8.502;2023-02-24T04:05:57;13.47;;;6.80;;
2009;SDS011;1008;47.404;8.502;2023-02-24T04:08:34;12.67;;;7.63;;
2009;SDS011;1008;47.404;8.502;2023-02-24T04:11:07;13.73;;;7.00;;
2009;SDS011;1008;47.404;8.502;2023-02-24T04:13:40;10.70;;;6.67;;
2009;SDS011;1008;47.404;8.502;2023-02-24T04:16:11;14.37;;;7.97;;
2009;SDS011;1008;47.404;8.502;2023-02-24T04:18:42;17.67;;;7.57;;
2009;SDS011;1008;47.404;8.502;2023-02-24T04:21:14;14.97;;;7.60;;
2009;SDS011;1008;47.404;8.502;2023-02-24T04:23:44;16.07;;;7.87;;
2009;SDS011;1008;47.404;8.502;2023-02-24T04:26:12;11.27;;;6.77;;
2009;SDS011;1008;47.404;8.502;2023-02-24T04:28:43;16.27;;;8.77;;
2009;SDS011;1008;47.404;8.502;2023-02-24T04:31:12;11.43;;;6.67;;
2009;SDS011;1008;47.404;8.502;2023-02-24T04:33:42;18.30;;;8.80;;
2009;SDS011;1008;47.404;8.502;2023-02-24T04:36:15;19.00;;;8.87;;
2009;SDS011;1008;47.404;8.502;2023-02-24T04:38:42;14.33;;;7.47;;
2009;SDS011;1008;47.404;8.502;2023-02-24T04:41:09;17.47;;;8.70;;
2009;SDS011;1008;47.404;8.502;2023-02-24T04:43:36;13.40;;;7.80;;
2009;SDS011;1008;47.404;8.502;2023-02-24T04:46:04;19.10;;;8.20;;
2009;SDS011;1008;47.404;8.502;2023-02-24T04:48:32;17.40;;;7.87;;
2009;SDS011;1008;47.404;8.502;2023-02-24T04:50:59;16.77;;;7.57;;
2009;SDS011;1008;47.404;8.502;2023-02-24T04:53:29;18.07;;;8.63;;
2009;SDS011;1008;47.404;8.502;2023-02-24T04:55:55;13.97;;;8.37;;
2009;SDS011;1008;47.404;8.502;2023-02-24T04:58:23;21.27;;;8.93;;
2009;SDS011;1008;47.404;8.502;2023-02-24T05:00:52;17.17;;;8.80;;
2009;SDS011;1008;47.404;8.502;2023-02-24T05:03:20;15.30;;;8.77;;
2009;SDS011;1008;47.404;8.502;2023-02-24T05:05:52;16.97;;;8.87;;
2009;SDS011;1008;47.404;8.502;2023-02-24T05:08:22;16.60;;;8.40;;
2009;SDS011;1008;47.404;8.502;2023-02-24T05:10:50;17.00;;;9.33;;
2009;SDS011;1008;47.404;8.502;2023-02-24T05:13:18;21.23;;;10.03;;
2009;SDS011;1008;47.404;8.502;2023-02-24T05:15:50;18.60;;;8.43;;
2009;SDS011;1008;47.404;8.502;2023-02-24T05:18:17;16.47;;;8.23;;
2009;SDS011;1008;47.404;8.502;2023-02-24T05:20:45;18.13;;;8.70;;
2009;SDS011;1008;47.404;8.502;2023-02-24T05:23:31;17.67;;;9.13;;
2009;SDS011;1008;47.404;8.502;2023-02-24T05:26:01;14.67;;;8.90;;
2009;SDS011;1008;47.404;8.502;2023-02-24T05:28:32;18.53;;;8.70;;
2009;SDS011;1008;47.404;8.502;2023-02-24T05:31:03;15.07;;;8.70;;
2009;SDS011;1008;47.404;8.502;2023-02-24T05:33:32;17.23;;;8.90;;
2009;SDS011;1008;47.404;8.502;2023-02-24T05:36:01;17.53;;;8.53;;
2009;SDS011;1008;47.404;8.502;2023-02-24T05:38:29;18.53;;;9.93;;
2009;SDS011;1008;47.404;8.502;2023-02-24T05:41:03;15.27;;;9.23;;
2009;SDS011;1008;47.404;8.502;2023-02-24T05:43:32;15.07;;;7.60;;
2009;SDS011;1008;47.404;8.502;2023-02-24T05:46:00;18.70;;;8.07;;
2009;SDS011;1008;47.404;8.502;2023-02-24T05:48:28;13.43;;;7.80;;
2009;SDS011;1008;47.404;8.502;2023-02-24T05:50:59;17.13;;;8.93;;
2009;SDS011;1008;47.404;8.502;2023-02-24T05:53:26;17.43;;;8.40;;
2009;SDS011;1008;47.404;8.502;2023-02-24T05:55:53;21.03;;;9.50;;
2009;SDS011;1008;47.404;8.502;2023-02-24T05:58:21;26.43;;;7.73;;
2009;SDS011;1008;47.404;8.502;2023-02-24T06:00:49;16.20;;;8.67;;
2009;SDS011;1008;47.404;8.502;2023-02-24T06:03:16;12.43;;;7.50;;
2009;SDS011;1008;47.404;8.502;2023-02-24T06:05:54;12.70;;;8.00;;
2009;SDS011;1008;47.404;8.502;2023-02-24T06:08:23;16.23;;;8.40;;
2009;SDS011;1008;47.404;8.502;2023-02-24T06:10:50;17.87;;;9.10;;
2009;SDS011;1008;47.404;8.502;2023-02-24T06:13:17;13.70;;;8.03;;
2009;SDS011;1008;47.404;8.502;2023-02-24T06:15:45;12.90;;;8.30;;
2009;SDS011;1008;47.404;8.502;2023-02-24T06:18:14;14.77;;;9.50;;
2009;SDS011;1008;47.404;8.502;2023-02-24T06:20:41;19.07;;;8.57;;
2009;SDS011;1008;47.404;8.502;2023-02-24T06:23:15;16.33;;;9.20;;
2009;SDS011;1008;47.404;8.502;2023-02-24T06:25:43;14.83;;;8.23;;
2009;SDS011;1008;47.404;8.502;2023-02-24T06:28:11;20.13;;;8.73;;
2009;SDS011;1008;47.404;8.502;2023-02-24T06:30:38;15.00;;;8.77;;
2009;SDS011;1008;47.404;8.502;2023-02-24T06:33:06;20.30;;;9.37;;
2009;SDS011;1008;47.404;8.502;2023-02-24T06:35:34;18.87;;;9.47;;
2009;SDS011;1008;47.404;8.502;2023-02-24T06:38:03;17.60;;;7.47;;
2009;SDS011;1008;47.404;8.502;2023-02-24T06:40:29;21.07;;;8.80;;
2009;SDS011;1008;47.404;8.502;2023-02-24T06:42:56;22.23;;;8.43;;
2009;SDS011;1008;47.404;8.502;2023-02-24T06:45:23;13.77;;;8.07;;
2009;SDS011;1008;47.404;8.502;2023-02-24T06:47:50;23.10;;;9.93;;
2009;SDS011;1008;47.404;8.502;2023-02-24T06:50:18;17.40;;;8.10;;
2009;SDS011;1008;47.404;8.502;2023-02-24T06:52:45;16.60;;;8.83;;
2009;SDS011;1008;47.404;8.502;2023-02-24T06:55:13;19.13;;;9.37;;
2009;SDS011;1008;47.404;8.502;2023-02-24T06:57:51;15.27;;;8.40;;
2009;SDS011;1008;47.404;8.502;2023-02-24T07:00:21;23.83;;;9.30;;
2009;SDS011;1008;47.404;8.502;2023-02-24T07:03:00;17.10;;;8.20;;
2009;SDS011;1008;47.404;8.502;2023-02-24T07:05:42;21.33;;;9.33;;
2009;SDS011;1008;47.404;8.502;2023-02-24T07:08:15;22.43;;;9.23;;
2009;SDS011;1008;47.404;8.502;2023-02-24T07:10:50;19.20;;;9.30;;
2009;SDS011;1008;47.404;8.502;2023-02-24T07:13:18;18.27;;;10.13;;
2009;SDS011;1008;47.404;8.502;2023-02-24T07:15:45;20.33;;;10.03;;
2009;SDS011;1008;47.404;8.502;2023-02-24T07:18:14;20.40;;;10.07;;
2009;SDS011;1008;47.404;8.502;2023-02-24T07:20:42;19.83;;;10.90;;
2009;SDS011;1008;47.404;8.502;2023-02-24T07:23:10;21.30;;;11.40;;
2009;SDS011;1008;47.404;8.502;2023-02-24T07:25:38;19.13;;;9.40;;
2009;SDS011;1008;47.404;8.502;2023-02-24T07:28:07;20.90;;;10.10;;
2009;SDS011;1008;47.404;8.502;2023-02-24T07:30:35;16.50;;;9.43;;
2009;SDS011;1008;47.404;8.502;2023-02-24T07:33:04;17.70;;;9.23;;
2009;SDS011;1008;47.404;8.502;2023-02-24T07:35:31;21.87;;;7.83;;
2009;SDS011;1008;47.404;8.502;2023-02-24T07:38:00;17.00;;;8.40;;
2009;SDS011;1008;47.404;8.502;2023-02-24T07:40:29;25.33;;;10.27;;
2009;SDS011;1008;47.404;8.502;2023-02-24T07:42:57;14.27;;;8.10;;
2009;SDS011;1008;47.404;8.502;2023-02-24T07:45:25;25.13;;;10.10;;
2009;SDS011;1008;47.404;8.502;2023-02-24T07:47:51;15.80;;;8.30;;
2009;SDS011;1008;47.404;8.502;2023-02-24T07:50:19;20.87;;;10.63;;
2009;SDS011;1008;47.404;8.502;2023-02-24T07:52:46;15.60;;;8.27;;
2009;SDS011;1008;47.404;8.502;2023-02-24T07:55:14;16.63;;;8.80;;
2009;SDS011;1008;47.404;8.502;2023-02-24T07:57:41;22.53;;;10.23;;
2009;SDS011;1008;47.404;8.502;2023-02-24T08:00:11;27.73;;;11.50;;
2009;SDS011;1008;47.404;8.502;2023-02-24T08:02:44;19.00;;;9.17;;
2009;SDS011;1008;47.404;8.502;2023-02-24T08:05:11;21.53;;;9.63;;
2009;SDS011;1008;47.404;8.502;2023-02-24T08:07:38;18.67;;;9.30;;
2009;SDS011;1008;47.404;8.502;2023-02-24T08:10:07;24.63;;;9.97;;
2009;SDS011;1008;47.404;8.502;2023-02-24T08:12:49;16.23;;;8.70;;
2009;SDS011;1008;47.404;8.502;2023-02-24T08:15:19;22.07;;;12.57;;
2009;SDS011;1008;47.404;8.502;2023-02-24T08:17:49;20.13;;;9.00;;
2009;SDS011;1008;47.404;8.502;2023-02-24T08:20:17;21.37;;;12.70;;
2009;SDS011;1008;47.404;8.502;2023-02-24T08:22:49;34.30;;;17.30;;
2009;SDS011;1008;47.404;8.502;2023-02-24T08:25:17;20.17;;;10.50;;
2009;SDS011;1008;47.404;8.502;2023-02-24T08:27:47;21.73;;;10.43;;
2009;SDS011;1008;47.404;8.502;2023-02-24T08:30:20;14.93;;;8.90;;
2009;SDS011;1008;47.404;8.502;2023-02-24T08:32:49;16.00;;;9.30;;
2009;SDS011;1008;47.404;8.502;2023-02-24T08:35:21;28.63;;;11.50;;
2009;SDS011;1008;47.404;8.502;2023-02-24T08:37:50;19.57;;;10.80;;
2009;SDS011;1008;47.404;8.502;2023-02-24T08:40:19;19.17;;;9.90;;
2009;SDS011;1008;47.404;8.502;2023-02-24T08:43:06;26.40;;;12.80;;
2009;SDS011;1008;47.404;8.502;2023-02-24T08:45:44;17.40;;;9.10;;
2009;SDS011;1008;47.404;8.502;2023-02-24T08:48:15;24.90;;;11.30;;
2009;SDS011;1008;47.404;8.502;2023-02-24T08:50:50;22.30;;;11.13;;
2009;SDS011;1008;47.404;8.502;2023-02-24T08:53:19;18.00;;;9.53;;
2009;SDS011;1008;47.404;8.502;2023-02-24T08:55:46;19.20;;;9.70;;
2009;SDS011;1008;47.404;8.502;2023-02-24T08:58:17;16.57;;;9.30;;
2009;SDS011;1008;47.404;8.502;2023-02-24T09:00:51;17.67;;;9.87;;
2009;SDS011;1008;47.404;8.502;2023-02-24T09:03:19;22.17;;;9.67;;
2009;SDS011;1008;47.404;8.502;2023-02-24T09:06:00;18.20;;;9.37;;
2009;SDS011;1008;47.404;8.502;2023-02-24T09:08:30;22.67;;;10.13;;
2009;SDS011;1008;47.404;8.502;2023-02-24T09:10:58;21.73;;;9.87;;
2009;SDS011;1008;47.404;8.502;2023-02-24T09:13:27;21.30;;;10.50;;
2009;SDS011;1008;47.404;8.502;2023-02-24T09:15:58;13.97;;;9.00;;
2009;SDS011;1008;47.404;8.502;2023-02-24T09:18:26;19.77;;;9.43;;
2009;SDS011;1008;47.404;8.502;2023-02-24T09:21:06;18.53;;;9.40;;
2009;SDS011;1008;47.404;8.502;2023-02-24T09:23:57;25.83;;;10.20;;
2009;SDS011;1008;47.404;8.502;2023-02-24T09:26:27;15.97;;;9.13;;
2009;SDS011;1008;47.404;8.502;2023-02-24T09:28:58;18.00;;;10.30;;
2009;SDS011;1008;47.404;8.502;2023-02-24T09:31:25;24.07;;;10.07;;
2009;SDS011;1008;47.404;8.502;2023-02-24T09:34:04;23.87;;;12.00;;
2009;SDS011;1008;47.404;8.502;2023-02-24T09:36:34;21.97;;;10.60;;
2009;SDS011;1008;47.404;8.502;2023-02-24T09:39:09;20.07;;;10.60;;
2009;SDS011;1008;47.404;8.502;2023-02-24T09:41:38;19.53;;;10.60;;
2009;SDS011;1008;47.404;8.502;2023-02-24T09:44:32;24.27;;;12.07;;
2009;SDS011;1008;47.404;8.502;2023-02-24T09:47:08;18.30;;;10.63;;
2009;SDS011;1008;47.404;8.502;2023-02-24T09:49:45;19.03;;;9.97;;
2009;SDS011;1008;47.404;8.502;2023-02-24T09:52:14;18.47;;;10.50;;
2009;SDS011;1008;47.404;8.502;2023-02-24T09:54:43;18.60;;;10.33;;
2009;SDS011;1008;47.404;8.502;2023-02-24T09:57:29;20.70;;;10.73;;
2009;SDS011;1008;47.404;8.502;2023-02-24T10:00:04;23.27;;;12.23;;
2009;SDS011;1008;47.404;8.502;2023-02-24T10:03:05;18.80;;;10.77;;
2009;SDS011;1008;47.404;8.502;2023-02-24T10:05:44;21.93;;;9.30;;
2009;SDS011;1008;47.404;8.502;2023-02-24T10:08:25;16.13;;;9.37;;
2009;SDS011;1008;47.404;8.502;2023-02-24T10:10:58;16.93;;;10.30;;
2009;SDS011;1008;47.404;8.502;2023-02-24T10:13:33;23.17;;;10.87;;
2009;SDS011;1008;47.404;8.502;2023-02-24T10:16:02;20.00;;;10.33;;
2009;SDS011;1008;47.404;8.502;2023-02-24T10:18:38;16.00;;;9.63;;
2009;SDS011;1008;47.404;8.502;2023-02-24T10:21:12;20.80;;;9.37;;
2009;SDS011;1008;47.404;8.502;2023-02-24T10:23:48;19.00;;;9.70;;
2009;SDS011;1008;47.404;8.502;2023-02-24T10:26:24;22.30;;;11.77;;
2009;SDS011;1008;47.404;8.502;2023-02-24T10:28:58;18.40;;;10.67;;
2009;SDS011;1008;47.404;8.502;2023-02-24T10:31:33;20.43;;;10.80;;
2009;SDS011;1008;47.404;8.502;2023-02-24T10:34:11;21.57;;;10.47;;
2009;SDS011;1008;47.404;8.502;2023-02-24T10:36:44;24.13;;;11.30;;
2009;SDS011;1008;47.404;8.502;2023-02-24T10:39:14;17.83;;;9.80;;
2009;SDS011;1008;47.404;8.502;2023-02-24T10:41:45;17.33;;;10.33;;
2009;SDS011;1008;47.404;8.502;2023-02-24T10:44:18;20.60;;;10.00;;
2009;SDS011;1008;47.404;8.502;2023-02-24T10:46:57;19.57;;;10.10;;
2009;SDS011;1008;47.404;8.502;2023-02-24T10:49:39;25.40;;;12.60;;
2009;SDS011;1008;47.404;8.502;2023-02-24T10:52:21;20.53;;;10.10;;
2009;SDS011;1008;47.404;8.502;2023-02-24T10:55:23;23.73;;;10.10;;
2009;SDS011;1008;47.404;8.502;2023-02-24T10:57:53;18.83;;;9.83;;
2009;SDS011;1008;47.404;8.502;2023-02-24T11:00:36;19.17;;;10.43;;
2009;SDS011;1008;47.404;8.502;2023-02-24T11:03:36;16.40;;;9.97;;
2009;SDS011;1008;47.404;8.502;2023-02-24T11:06:17;17.77;;;8.80;;
2009;SDS011;1008;47.404;8.502;2023-02-24T11:09:12;18.33;;;10.43;;
2009;SDS011;1008;47.404;8.502;2023-02-24T11:12:01;19.73;;;10.50;;
2009;SDS011;1008;47.404;8.502;2023-02-24T11:14:49;20.33;;;9.50;;
2009;SDS011;1008;47.404;8.502;2023-02-24T11:17:35;17.33;;;10.20;;
2009;SDS011;1008;47.404;8.502;2023-02-24T11:20:14;16.27;;;9.57;;
2009;SDS011;1008;47.404;8.502;2023-02-24T11:22:50;16.00;;;9.10;;
2009;SDS011;1008;47.404;8.502;2023-02-24T11:25:20;18.67;;;10.20;;
2009;SDS011;1008;47.404;8.502;2023-02-24T11:27:50;18.13;;;10.50;;
2009;SDS011;1008;47.404;8.502;2023-02-24T11:30:21;17.90;;;10.10;;
2009;SDS011;1008;47.404;8.502;2023-02-24T11:33:01;18.73;;;9.53;;
2009;SDS011;1008;47.404;8.502;2023-02-24T11:35:47;16.93;;;10.90;;
2009;SDS011;1008;47.404;8.502;2023-02-24T11:38:27;24.50;;;9.77;;
2009;SDS011;1008;47.404;8.502;2023-02-24T11:41:04;19.83;;;9.93;;
2009;SDS011;1008;47.404;8.502;2023-02-24T11:43:38;21.20;;;9.40;;
2009;SDS011;1008;47.404;8.502;2023-02-24T11:46:09;14.73;;;8.60;;
2009;SDS011;1008;47.404;8.502;2023-02-24T11:48:40;16.77;;;8.17;;
2009;SDS011;1008;47.404;8.502;2023-02-24T11:51:12;22.13;;;8.80;;
2009;SDS011;1008;47.404;8.502;2023-02-24T11:53:46;17.70;;;7.03;;
2009;SDS011;1008;47.404;8.502;2023-02-24T11:56:18;15.70;;;7.50;;
2009;SDS011;1008;47.404;8.502;2023-02-24T11:58:49;12.60;;;7.00;;
2009;SDS011;1008;47.404;8.502;2023-02-24T12:01:24;17.03;;;7.23;;
2009;SDS011;1008;47.404;8.502;2023-02-24T12:03:56;15.57;;;6.57;;
2009;SDS011;1008;47.404;8.502;2023-02-24T12:06:34;11.20;;;6.30;;
2009;SDS011;1008;47.404;8.502;2023-02-24T12:09:06;14.73;;;5.47;;
2009;SDS011;1008;47.404;8.502;2023-02-24T12:11:41;11.60;;;5.90;;
2009;SDS011;1008;47.404;8.502;2023-02-24T12:14:27;10.00;;;6.10;;
2009;SDS011;1008;47.404;8.502;2023-02-24T12:17:00;8.60;;;3.77;;
2009;SDS011;1008;47.404;8.502;2023-02-24T12:19:38;11.17;;;4.40;;
2009;SDS011;1008;47.404;8.502;2023-02-24T12:22:12;10.40;;;4.40;;
2009;SDS011;1008;47.404;8.502;2023-02-24T12:24:43;9.93;;;5.03;;
2009;SDS011;1008;47.404;8.502;2023-02-24T12:27:14;8.53;;;4.13;;
2009;SDS011;1008;47.404;8.502;2023-02-24T12:29:51;12.10;;;5.27;;
2009;SDS011;1008;47.404;8.502;2023-02-24T12:32:33;7.97;;;4.67;;
2009;SDS011;1008;47.404;8.502;2023-02-24T12:35:12;15.17;;;5.30;;
2009;SDS011;1008;47.404;8.502;2023-02-24T12:37:52;15.50;;;6.10;;
2009;SDS011;1008;47.404;8.502;2023-02-24T12:40:30;17.13;;;5.20;;
2009;SDS011;1008;47.404;8.502;2023-02-24T12:43:09;16.13;;;5.30;;
2009;SDS011;1008;47.404;8.502;2023-02-24T12:45:46;18.03;;;4.20;;
2009;SDS011;1008;47.404;8.502;2023-02-24T12:48:24;14.47;;;4.70;;
2009;SDS011;1008;47.404;8.502;2023-02-24T12:51:12;12.00;;;4.90;;
2009;SDS011;1008;47.404;8.502;2023-02-24T12:53:45;10.53;;;4.10;;
2009;SDS011;1008;47.404;8.502;2023-02-24T12:56:24;8.87;;;4.30;;
2009;SDS011;1008;47.404;8.502;2023-02-24T12:58:55;15.40;;;5.40;;
2009;SDS011;1008;47.404;8.502;2023-02-24T13:01:26;10.70;;;4.70;;
2009;SDS011;1008;47.404;8.502;2023-02-24T13:04:06;17.20;;;5.27;;
2009;SDS011;1008;47.404;8.502;2023-02-24T13:06:52;11.73;;;4.00;;
2009;SDS011;1008;47.404;8.502;2023-02-24T13:09:31;9.37;;;3.70;;
2009;SDS011;1008;47.404;8.502;2023-02-24T13:12:11;10.53;;;4.30;;
2009;SDS011;1008;47.404;8.502;2023-02-24T13:14:42;15.77;;;3.80;;
2009;SDS011;1008;47.404;8.502;2023-02-24T13:17:17;10.10;;;4.73;;
2009;SDS011;1008;47.404;8.502;2023-02-24T13:19:46;13.23;;;4.70;;
2009;SDS011;1008;47.404;8.502;2023-02-24T13:22:24;10.17;;;5.33;;
2009;SDS011;1008;47.404;8.502;2023-02-24T13:24:57;17.53;;;4.27;;
2009;SDS011;1008;47.404;8.502;2023-02-24T13:27:30;9.70;;;3.90;;
2009;SDS011;1008;47.404;8.502;2023-02-24T13:30:22;11.73;;;4.23;;
2009;SDS011;1008;47.404;8.502;2023-02-24T13:32:57;18.87;;;4.90;;
2009;SDS011;1008;47.404;8.502;2023-02-24T13:35:31;15.73;;;5.03;;
2009;SDS011;1008;47.404;8.502;2023-02-24T13:38:07;18.10;;;4.77;;
2009;SDS011;1008;47.404;8.502;2023-02-24T13:40:35;10.70;;;4.67;;
2009;SDS011;1008;47.404;8.502;2023-02-24T13:43:04;9.03;;;4.60;;
2009;SDS011;1008;47.404;8.502;2023-02-24T13:45:52;11.90;;;4.03;;
2009;SDS011;1008;47.404;8.502;2023-02-24T13:48:42;18.97;;;5.00;;
2009;SDS011;1008;47.404;8.502;2023-02-24T13:51:21;10.17;;;3.63;;
2009;SDS011;1008;47.404;8.502;2023-02-24T13:54:16;8.90;;;4.30;;
2009;SDS011;1008;47.404;8.502;2023-02-24T13:56:52;20.90;;;5.97;;
2009;SDS011;1008;47.404;8.502;2023-02-24T13:59:25;10.23;;;3.47;;
2009;SDS011;1008;47.404;8.502;2023-02-24T14:02:11;12.10;;;3.90;;
2009;SDS011;1008;47.404;8.502;2023-02-24T14:04:44;9.13;;;4.00;;
2009;SDS011;1008;47.404;8.502;2023-02-24T14:07:17;11.13;;;4.23;;
2009;SDS011;1008;47.404;8.502;2023-02-24T14:09:50;12.60;;;4.77;;
2009;SDS011;1008;47.404;8.502;2023-02-24T14:12:20;11.33;;;3.60;;
2009;SDS011;1008;47.404;8.502;2023-02-24T14:14:51;13.20;;;4.30;;
2009;SDS011;1008;47.404;8.502;2023-02-24T14:17:20;10.53;;;3.73;;
2009;SDS011;1008;47.404;8.502;2023-02-24T14:19:52;10.03;;;4.10;;
2009;SDS011;1008;47.404;8.502;2023-02-24T14:22:19;14.00;;;3.90;;
2009;SDS011;1008;47.404;8.502;2023-02-24T14:24:46;12.50;;;4.37;;
2009;SDS011;1008;47.404;8.502;2023-02-24T14:27:17;7.93;;;2.80;;
2009;SDS011;1008;47.404;8.502;2023-02-24T14:29:49;16.73;;;3.03;;
2009;SDS011;1008;47.404;8.502;2023-02-24T14:32:19;7.60;;;2.90;;
2009;SDS011;1008;47.404;8.502;2023-02-24T14:34:47;12.60;;;2.90;;
2009;SDS011;1008;47.404;8.502;2023-02-24T14:37:14;7.50;;;3.30;;
2009;SDS011;1008;47.404;8.502;2023-02-24T14:39:48;21.33;;;3.90;;
2009;SDS011;1008;47.404;8.502;2023-02-24T14:42:19;7.50;;;3.50;;
2009;SDS011;1008;47.404;8.502;2023-02-24T14:44:47;7.90;;;3.57;;
2009;SDS011;1008;47.404;8.502;2023-02-24T14:47:17;8.47;;;3.30;;
2009;SDS011;1008;47.404;8.502;2023-02-24T14:49:52;10.53;;;3.60;;
2009;SDS011;1008;47.404;8.502;2023-02-24T14:52:23;14.63;;;3.30;;
2009;SDS011;1008;47.404;8.502;2023-02-24T14:54:58;10.93;;;2.63;;
2009;SDS011;1008;47.404;8.502;2023-02-24T14:57:29;14.27;;;3.27;;
2009;SDS011;1008;47.404;8.502;2023-02-24T15:00:00;13.63;;;3.63;;
2009;SDS011;1008;47.404;8.502;2023-02-24T15:02:38;8.50;;;2.43;;
2009;SDS011;1008;47.404;8.502;2023-02-24T15:05:08;17.03;;;3.33;;
2009;SDS011;1008;47.404;8.502;2023-02-24T15:07:35;7.90;;;3.20;;
2009;SDS011;1008;47.404;8.502;2023-02-24T15:10:03;12.63;;;3.50;;
2009;SDS011;1008;47.404;8.502;2023-02-24T15:12:32;13.93;;;3.20;;
2009;SDS011;1008;47.404;8.502;2023-02-24T15:15:03;10.67;;;2.30;;
2009;SDS011;1008;47.404;8.502;2023-02-24T15:17:32;12.43;;;3.93;;
2009;SDS011;1008;47.404;8.502;2023-02-24T15:22:55;7.63;;;2.40;;
2009;SDS011;1008;47.404;8.502;2023-02-24T15:25:23;8.20;;;2.83;;
2009;SDS011;1008;47.404;8.502;2023-02-24T15:27:51;15.17;;;3.20;;
2009;SDS011;1008;47.404;8.502;2023-02-24T15:30:24;9.73;;;2.63;;
2009;SDS011;1008;47.404;8.502;2023-02-24T15:32:58;5.53;;;2.63;;
2009;SDS011;1008;47.404;8.502;2023-02-24T15:35:27;12.77;;;3.73;;
2009;SDS011;1008;47.404;8.502;2023-02-24T15:37:57;6.63;;;2.87;;
2009;SDS011;1008;47.404;8.502;2023-02-24T15:40:25;12.47;;;2.87;;